sensor_id;sensor_type;location;lat;lon;timestamp;pressure;altitude;pressure_sealevel;temperature
15701;BMP180;7950;42.744;23.174;2023-02-28T00:01:56;94841.38;;;6.96
15701;BMP180;7950;42.744;23.174;2023-02-28T00:04:24;94839.13;;;7.00
15701;BMP180;7950;42.744;23.174;2023-02-28T00:06:54;94841.16;;;6.98
15701;BMP180;7950;42.744;23.174;2023-02-28T00:09:22;94844.59;;;6.98
15701;BMP180;7950;42.744;23.174;2023-02-28T00:11:51;94837.13;;;7.02
15701;BMP180;7950;42.744;23.174;2023-02-28T00:14:32;94852.63;;;6.97
15701;BMP180;7950;42.744;23.174;2023-02-28T00:17:00;94859.72;;;6.90
15701;BMP180;7950;42.744;23.174;2023-02-28T00:19:29;94859.34;;;6.86
15701;BMP180;7950;42.744;23.174;2023-02-28T00:21:57;94862.38;;;6.83
15701;BMP180;7950;42.744;23.174;2023-02-28T00:24:26;94870.81;;;6.85
15701;BMP180;7950;42.744;23.174;2023-02-28T00:26:54;94873.97;;;6.87
15701;BMP180;7950;42.744;23.174;2023-02-28T00:29:23;94869.78;;;6.86
15701;BMP180;7950;42.744;23.174;2023-02-28T00:31:53;94869.56;;;6.88
15701;BMP180;7950;42.744;23.174;2023-02-28T00:34:35;94868.56;;;6.89
15701;BMP180;7950;42.744;23.174;2023-02-28T00:37:06;94875.00;;;6.86
15701;BMP180;7950;42.744;23.174;2023-02-28T00:39:37;94874.84;;;6.81
15701;BMP180;7950;42.744;23.174;2023-02-28T00:42:07;94870.66;;;6.80
15701;BMP180;7950;42.744;23.174;2023-02-28T00:44:35;94876.66;;;6.81
15701;BMP180;7950;42.744;23.174;2023-02-28T00:47:05;94865.06;;;6.77
15701;BMP180;7950;42.744;23.174;2023-02-28T00:49:34;94872.88;;;6.77
15701;BMP180;7950;42.744;23.174;2023-02-28T00:52:02;94870.66;;;6.80
15701;BMP180;7950;42.744;23.174;2023-02-28T00:54:31;94867.94;;;6.69
15701;BMP180;7950;42.744;23.174;2023-02-28T00:56:59;94878.00;;;6.65
15701;BMP180;7950;42.744;23.174;2023-02-28T00:59:28;94867.56;;;6.65
15701;BMP180;7950;42.744;23.174;2023-02-28T01:01:57;94876.41;;;6.64
15701;BMP180;7950;42.744;23.174;2023-02-28T01:04:26;94867.00;;;6.63
15701;BMP180;7950;42.744;23.174;2023-02-28T01:06:55;94858.59;;;6.61
15701;BMP180;7950;42.744;23.174;2023-02-28T01:09:24;94858.31;;;6.69
15701;BMP180;7950;42.744;23.174;2023-02-28T01:11:52;94853.53;;;6.66
15701;BMP180;7950;42.744;23.174;2023-02-28T01:14:21;94854.13;;;6.68
15701;BMP180;7950;42.744;23.174;2023-02-28T01:16:49;94855.06;;;6.74
15701;BMP180;7950;42.744;23.174;2023-02-28T01:19:19;94855.06;;;6.74
15701;BMP180;7950;42.744;23.174;2023-02-28T01:21:48;94854.63;;;6.77
15701;BMP180;7950;42.744;23.174;2023-02-28T01:24:17;94857.81;;;6.79
15701;BMP180;7950;42.744;23.174;2023-02-28T01:26:45;94856.59;;;6.81
15701;BMP180;7950;42.744;23.174;2023-02-28T01:29:15;94857.81;;;6.79
15701;BMP180;7950;42.744;23.174;2023-02-28T01:32:09;94850.00;;;6.79
15701;BMP180;7950;42.744;23.174;2023-02-28T01:34:38;94853.03;;;6.76
15701;BMP180;7950;42.744;23.174;2023-02-28T01:37:08;94855.84;;;6.74
15701;BMP180;7950;42.744;23.174;2023-02-28T01:39:36;94855.66;;;6.76
15701;BMP180;7950;42.744;23.174;2023-02-28T01:42:05;94850.44;;;6.76
15701;BMP180;7950;42.744;23.174;2023-02-28T01:45:20;94862.22;;;6.78
15701;BMP180;7950;42.744;23.174;2023-02-28T01:47:53;94861.00;;;6.81
15701;BMP180;7950;42.744;23.174;2023-02-28T01:50:28;94867.25;;;6.80
15701;BMP180;7950;42.744;23.174;2023-02-28T01:53:04;94854.78;;;6.82
15701;BMP180;7950;42.744;23.174;2023-02-28T01:55:35;94850.94;;;6.84
15701;BMP180;7950;42.744;23.174;2023-02-28T01:58:06;94851.53;;;6.86
15701;BMP180;7950;42.744;23.174;2023-02-28T02:00:36;94844.06;;;6.90
15701;BMP180;7950;42.744;23.174;2023-02-28T02:03:12;94857.25;;;6.95
15701;BMP180;7950;42.744;23.174;2023-02-28T02:05:43;94854.22;;;6.98
15701;BMP180;7950;42.744;23.174;2023-02-28T02:08:21;94852.78;;;7.02
15701;BMP180;7950;42.744;23.174;2023-02-28T02:10:53;94868.00;;;7.05
15701;BMP180;7950;42.744;23.174;2023-02-28T02:13:50;94864.66;;;6.98
15701;BMP180;7950;42.744;23.174;2023-02-28T02:16:40;94864.50;;;6.93
15701;BMP180;7950;42.744;23.174;2023-02-28T02:19:50;94858.69;;;6.91
15701;BMP180;7950;42.744;23.174;2023-02-28T02:23:06;94852.63;;;6.97
15701;BMP180;7950;42.744;23.174;2023-02-28T02:25:42;94853.19;;;6.99
15701;BMP180;7950;42.744;23.174;2023-02-28T02:32:27;94855.38;;;7.02
15701;BMP180;7950;42.744;23.174;2023-02-28T02:35:11;94851.53;;;7.04
15701;BMP180;7950;42.744;23.174;2023-02-28T02:37:48;94851.25;;;7.12
15701;BMP180;7950;42.744;23.174;2023-02-28T02:40:22;94858.88;;;7.14
15701;BMP180;7950;42.744;23.174;2023-02-28T02:42:56;94865.25;;;7.18
15701;BMP180;7950;42.744;23.174;2023-02-28T02:45:33;94862.63;;;7.18
15701;BMP180;7950;42.744;23.174;2023-02-28T02:48:07;94861.63;;;7.19
15701;BMP180;7950;42.744;23.174;2023-02-28T02:51:06;94862.19;;;7.21
15701;BMP180;7950;42.744;23.174;2023-02-28T02:53:46;94859.06;;;7.12
15701;BMP180;7950;42.744;23.174;2023-02-28T02:56:23;94865.66;;;7.15
15701;BMP180;7950;42.744;23.174;2023-02-28T02:58:56;94859.00;;;7.19
15701;BMP180;7950;42.744;23.174;2023-02-28T03:01:31;94873.41;;;7.21
15701;BMP180;7950;42.744;23.174;2023-02-28T03:04:03;94870.00;;;7.21
15701;BMP180;7950;42.744;23.174;2023-02-28T03:06:34;94871.44;;;7.17
15701;BMP180;7950;42.744;23.174;2023-02-28T03:09:03;94873.91;;;7.12
15701;BMP180;7950;42.744;23.174;2023-02-28T03:11:35;94874.00;;;7.23
15701;BMP180;7950;42.744;23.174;2023-02-28T03:14:25;94871.91;;;7.32
15701;BMP180;7950;42.744;23.174;2023-02-28T03:17:45;94873.50;;;7.33
15701;BMP180;7950;42.744;23.174;2023-02-28T03:20:35;94877.41;;;7.24
15701;BMP180;7950;42.744;23.174;2023-02-28T03:23:15;94880.31;;;7.16
15701;BMP180;7950;42.744;23.174;2023-02-28T03:25:56;94875.09;;;7.16
15701;BMP180;7950;42.744;23.174;2023-02-28T03:28:36;94893.91;;;7.00
15701;BMP180;7950;42.744;23.174;2023-02-28T03:31:18;94903.50;;;7.06
15701;BMP180;7950;42.744;23.174;2023-02-28T03:33:55;94900.75;;;7.01
15701;BMP180;7950;42.744;23.174;2023-02-28T03:36:32;94908.78;;;6.99
15701;BMP180;7950;42.744;23.174;2023-02-28T03:39:09;94918.03;;;6.95
15701;BMP180;7950;42.744;23.174;2023-02-28T03:42:29;94909.97;;;6.79
15701;BMP180;7950;42.744;23.174;2023-02-28T03:45:04;94913.75;;;6.83
15701;BMP180;7950;42.744;23.174;2023-02-28T03:47:40;94925.56;;;6.85
15701;BMP180;7950;42.744;23.174;2023-02-28T03:50:16;94922.06;;;6.73
15701;BMP180;7950;42.744;23.174;2023-02-28T03:52:51;94921.25;;;6.73
15701;BMP180;7950;42.744;23.174;2023-02-28T03:55:23;94917.09;;;6.65
15701;BMP180;7950;42.744;23.174;2023-02-28T03:57:59;94913.72;;;6.65
15701;BMP180;7950;42.744;23.174;2023-02-28T04:00:34;94916.91;;;6.67
15701;BMP180;7950;42.744;23.174;2023-02-28T04:03:04;94917.25;;;6.70
15701;BMP180;7950;42.744;23.174;2023-02-28T04:05:47;94919.66;;;6.72
15701;BMP180;7950;42.744;23.174;2023-02-28T04:08:17;94926.00;;;6.82
15701;BMP180;7950;42.744;23.174;2023-02-28T04:10:54;94925.19;;;6.82
15701;BMP180;7950;42.744;23.174;2023-02-28T04:13:29;94933.38;;;6.85
15701;BMP180;7950;42.744;23.174;2023-02-28T04:15:57;94922.50;;;6.88
15701;BMP180;7950;42.744;23.174;2023-02-28T04:18:26;94930.28;;;6.95
15701;BMP180;7950;42.744;23.174;2023-02-28T04:20:54;94927.66;;;6.95
15701;BMP180;7950;42.744;23.174;2023-02-28T04:23:23;94920.28;;;6.92
15701;BMP180;7950;42.744;23.174;2023-02-28T04:25:56;94926.34;;;6.86
15701;BMP180;7950;42.744;23.174;2023-02-28T04:28:25;94933.53;;;6.90
15701;BMP180;7950;42.744;23.174;2023-02-28T04:30:55;94931.28;;;6.94
15701;BMP180;7950;42.744;23.174;2023-02-28T04:33:24;94937.09;;;6.96
15701;BMP180;7950;42.744;23.174;2023-02-28T04:36:43;94929.66;;;6.99
15701;BMP180;7950;42.744;23.174;2023-02-28T04:39:13;94928.41;;;7.02
15701;BMP180;7950;42.744;23.174;2023-02-28T04:41:43;94933.41;;;7.03
15701;BMP180;7950;42.744;23.174;2023-02-28T04:44:12;94929.56;;;7.06
15701;BMP180;7950;42.744;23.174;2023-02-28T04:46:41;94935.97;;;7.10
15701;BMP180;7950;42.744;23.174;2023-02-28T04:49:11;94942.56;;;7.12
15701;BMP180;7950;42.744;23.174;2023-02-28T04:51:41;94943.34;;;7.13
15701;BMP180;7950;42.744;23.174;2023-02-28T04:54:09;94942.34;;;7.14
15701;BMP180;7950;42.744;23.174;2023-02-28T04:57:04;94940.16;;;7.11
15701;BMP180;7950;42.744;23.174;2023-02-28T04:59:33;94948.19;;;7.09
15701;BMP180;7950;42.744;23.174;2023-02-28T05:02:02;94958.28;;;7.06
15701;BMP180;7950;42.744;23.174;2023-02-28T05:04:34;94948.41;;;7.08
15701;BMP180;7950;42.744;23.174;2023-02-28T05:07:04;94946.25;;;7.05
15701;BMP180;7950;42.744;23.174;2023-02-28T05:09:32;94943.03;;;7.03
15701;BMP180;7950;42.744;23.174;2023-02-28T05:12:01;94954.06;;;7.05
15701;BMP180;7950;42.744;23.174;2023-02-28T05:14:31;94950.72;;;6.98
15701;BMP180;7950;42.744;23.174;2023-02-28T05:17:06;94947.91;;;6.99
15701;BMP180;7950;42.744;23.174;2023-02-28T05:20:26;94957.53;;;6.99
15701;BMP180;7950;42.744;23.174;2023-02-28T05:22:54;94958.75;;;6.96
15701;BMP180;7950;42.744;23.174;2023-02-28T05:25:23;94967.19;;;6.98
15701;BMP180;7950;42.744;23.174;2023-02-28T05:27:51;94966.53;;;7.03
15701;BMP180;7950;42.744;23.174;2023-02-28T05:30:21;94973.50;;;7.09
15701;BMP180;7950;42.744;23.174;2023-02-28T05:32:51;94974.06;;;7.11
15701;BMP180;7950;42.744;23.174;2023-02-28T05:35:19;94972.44;;;7.16
15701;BMP180;7950;42.744;23.174;2023-02-28T05:37:48;94971.81;;;7.14
15701;BMP180;7950;42.744;23.174;2023-02-28T05:40:17;94972.22;;;7.18
15701;BMP180;7950;42.744;23.174;2023-02-28T05:42:47;94973.34;;;7.22
15701;BMP180;7950;42.744;23.174;2023-02-28T05:45:18;94983.00;;;7.21
15701;BMP180;7950;42.744;23.174;2023-02-28T05:47:48;94989.00;;;7.22
15701;BMP180;7950;42.744;23.174;2023-02-28T05:50:16;94977.84;;;7.15
15701;BMP180;7950;42.744;23.174;2023-02-28T05:52:49;94983.63;;;7.17
15701;BMP180;7950;42.744;23.174;2023-02-28T05:55:17;94979.16;;;7.06
15701;BMP180;7950;42.744;23.174;2023-02-28T05:57:46;94984.66;;;7.16
15701;BMP180;7950;42.744;23.174;2023-02-28T06:00:15;94978.88;;;7.14
15701;BMP180;7950;42.744;23.174;2023-02-28T06:02:45;94980.25;;;7.16
15701;BMP180;7950;42.744;23.174;2023-02-28T06:05:17;94984.25;;;7.19
15701;BMP180;7950;42.744;23.174;2023-02-28T06:07:45;94993.09;;;7.18
15701;BMP180;7950;42.744;23.174;2023-02-28T06:10:14;94987.56;;;7.26
15701;BMP180;7950;42.744;23.174;2023-02-28T06:12:43;94984.34;;;7.30
15701;BMP180;7950;42.744;23.174;2023-02-28T06:15:13;94991.50;;;7.35
15701;BMP180;7950;42.744;23.174;2023-02-28T06:17:43;94998.53;;;7.34
15701;BMP180;7950;42.744;23.174;2023-02-28T06:20:13;95001.78;;;7.30
15701;BMP180;7950;42.744;23.174;2023-02-28T06:22:42;94992.78;;;7.26
15701;BMP180;7950;42.744;23.174;2023-02-28T06:25:11;94997.03;;;7.27
15701;BMP180;7950;42.744;23.174;2023-02-28T06:27:39;95001.22;;;7.28
15701;BMP180;7950;42.744;23.174;2023-02-28T06:30:10;95002.97;;;7.34
15701;BMP180;7950;42.744;23.174;2023-02-28T06:32:38;95006.16;;;7.36
15701;BMP180;7950;42.744;23.174;2023-02-28T06:35:33;95010.09;;;7.45
15701;BMP180;7950;42.744;23.174;2023-02-28T06:38:02;95006.81;;;7.49
15701;BMP180;7950;42.744;23.174;2023-02-28T06:40:31;95015.00;;;7.53
15701;BMP180;7950;42.744;23.174;2023-02-28T06:43:06;95017.63;;;7.53
15701;BMP180;7950;42.744;23.174;2023-02-28T06:45:36;95014.44;;;7.51
15701;BMP180;7950;42.744;23.174;2023-02-28T06:48:05;95015.47;;;7.50
15701;BMP180;7950;42.744;23.174;2023-02-28T06:50:35;95016.78;;;7.59
15701;BMP180;7950;42.744;23.174;2023-02-28T06:53:04;95009.09;;;7.64
15701;BMP180;7950;42.744;23.174;2023-02-28T06:55:32;95030.78;;;7.64
15701;BMP180;7950;42.744;23.174;2023-02-28T06:58:01;95020.63;;;7.74
15701;BMP180;7950;42.744;23.174;2023-02-28T07:00:29;95022.81;;;7.77
15701;BMP180;7950;42.744;23.174;2023-02-28T07:02:58;95020.53;;;7.81
15701;BMP180;7950;42.744;23.174;2023-02-28T07:05:45;95023.31;;;7.86
15701;BMP180;7950;42.744;23.174;2023-02-28T07:08:14;95030.47;;;7.90
15701;BMP180;7950;42.744;23.174;2023-02-28T07:10:43;95028.66;;;7.91
15701;BMP180;7950;42.744;23.174;2023-02-28T07:13:11;95027.63;;;7.92
15701;BMP180;7950;42.744;23.174;2023-02-28T07:15:40;95029.25;;;7.93
15701;BMP180;7950;42.744;23.174;2023-02-28T07:18:10;95028.81;;;7.96
15701;BMP180;7950;42.744;23.174;2023-02-28T07:20:38;95029.97;;;8.00
15701;BMP180;7950;42.744;23.174;2023-02-28T07:23:08;95027.94;;;8.02
15701;BMP180;7950;42.744;23.174;2023-02-28T07:25:37;95025.34;;;8.02
15701;BMP180;7950;42.744;23.174;2023-02-28T07:28:06;95024.66;;;8.06
15701;BMP180;7950;42.744;23.174;2023-02-28T07:30:34;95021.03;;;8.07
15701;BMP180;7950;42.744;23.174;2023-02-28T07:33:03;95011.38;;;8.08
15701;BMP180;7950;42.744;23.174;2023-02-28T07:35:32;95020.59;;;8.10
15701;BMP180;7950;42.744;23.174;2023-02-28T07:38:01;95019.94;;;8.15
15701;BMP180;7950;42.744;23.174;2023-02-28T07:40:32;95025.31;;;8.20
15701;BMP180;7950;42.744;23.174;2023-02-28T07:43:01;95024.31;;;8.21
15701;BMP180;7950;42.744;23.174;2023-02-28T07:45:31;95030.91;;;8.23
15701;BMP180;7950;42.744;23.174;2023-02-28T07:48:01;95027.88;;;8.26
15701;BMP180;7950;42.744;23.174;2023-02-28T07:50:30;95026.75;;;8.34
15701;BMP180;7950;42.744;23.174;2023-02-28T07:52:59;95020.06;;;8.38
15701;BMP180;7950;42.744;23.174;2023-02-28T07:55:27;95013.81;;;8.39
15701;BMP180;7950;42.744;23.174;2023-02-28T07:57:58;95019.78;;;8.46
15701;BMP180;7950;42.744;23.174;2023-02-28T08:00:32;95014.28;;;8.47
15701;BMP180;7950;42.744;23.174;2023-02-28T08:03:01;95022.53;;;8.51
15701;BMP180;7950;42.744;23.174;2023-02-28T08:05:29;95017.28;;;8.51
15701;BMP180;7950;42.744;23.174;2023-02-28T08:07:58;95012.84;;;8.51
15701;BMP180;7950;42.744;23.174;2023-02-28T08:10:27;95017.06;;;8.52
15701;BMP180;7950;42.744;23.174;2023-02-28T08:12:55;95022.06;;;8.54
15701;BMP180;7950;42.744;23.174;2023-02-28T08:15:51;95026.28;;;8.55
15701;BMP180;7950;42.744;23.174;2023-02-28T08:18:19;95030.84;;;8.59
15701;BMP180;7950;42.744;23.174;2023-02-28T08:20:48;95027.56;;;8.64
15701;BMP180;7950;42.744;23.174;2023-02-28T08:23:17;95034.94;;;8.67
15701;BMP180;7950;42.744;23.174;2023-02-28T08:25:53;95035.06;;;8.72
15701;BMP180;7950;42.744;23.174;2023-02-28T08:28:21;95036.69;;;8.73
15701;BMP180;7950;42.744;23.174;2023-02-28T08:30:54;95040.44;;;8.77
15701;BMP180;7950;42.744;23.174;2023-02-28T08:33:24;95024.88;;;8.82
15701;BMP180;7950;42.744;23.174;2023-02-28T08:36:07;95028.41;;;8.87
15701;BMP180;7950;42.744;23.174;2023-02-28T08:38:36;95028.31;;;8.94
15701;BMP180;7950;42.744;23.174;2023-02-28T08:41:09;95024.22;;;8.98
15701;BMP180;7950;42.744;23.174;2023-02-28T08:43:39;95028.56;;;9.04
15701;BMP180;7950;42.744;23.174;2023-02-28T08:46:12;95031.75;;;9.06
15701;BMP180;7950;42.744;23.174;2023-02-28T08:48:41;95035.50;;;9.10
15701;BMP180;7950;42.744;23.174;2023-02-28T08:51:13;95031.19;;;9.16
15701;BMP180;7950;42.744;23.174;2023-02-28T08:54:08;95034.97;;;9.20
15701;BMP180;7950;42.744;23.174;2023-02-28T08:56:39;95038.34;;;9.20
15701;BMP180;7950;42.744;23.174;2023-02-28T08:59:09;95025.84;;;9.22
15701;BMP180;7950;42.744;23.174;2023-02-28T09:01:39;95022.22;;;9.23
15701;BMP180;7950;42.744;23.174;2023-02-28T09:04:08;95023.34;;;9.27
15701;BMP180;7950;42.744;23.174;2023-02-28T09:06:38;95027.56;;;9.28
15701;BMP180;7950;42.744;23.174;2023-02-28T09:09:06;95028.94;;;9.31
15701;BMP180;7950;42.744;23.174;2023-02-28T09:11:36;95026.09;;;9.32
15701;BMP180;7950;42.744;23.174;2023-02-28T09:14:05;95024.28;;;9.44
15701;BMP180;7950;42.744;23.174;2023-02-28T09:16:34;95030.88;;;9.47
15701;BMP180;7950;42.744;23.174;2023-02-28T09:19:05;95023.34;;;9.50
15701;BMP180;7950;42.744;23.174;2023-02-28T09:22:23;95026.06;;;9.55
15701;BMP180;7950;42.744;23.174;2023-02-28T09:24:51;95016.41;;;9.56
15701;BMP180;7950;42.744;23.174;2023-02-28T09:27:20;95017.56;;;9.60
15701;BMP180;7950;42.744;23.174;2023-02-28T09:29:48;95018.91;;;9.62
15701;BMP180;7950;42.744;23.174;2023-02-28T09:32:17;95027.91;;;9.66
15701;BMP180;7950;42.744;23.174;2023-02-28T09:34:47;95026.66;;;9.69
15701;BMP180;7950;42.744;23.174;2023-02-28T09:37:16;95010.22;;;9.73
15701;BMP180;7950;42.744;23.174;2023-02-28T09:39:44;95016.50;;;9.72
15701;BMP180;7950;42.744;23.174;2023-02-28T09:42:21;95005.56;;;9.75
15701;BMP180;7950;42.744;23.174;2023-02-28T09:44:52;95010.69;;;9.82
15701;BMP180;7950;42.744;23.174;2023-02-28T09:47:29;95004.28;;;9.89
15701;BMP180;7950;42.744;23.174;2023-02-28T09:50:17;95004.06;;;9.91
15701;BMP180;7950;42.744;23.174;2023-02-28T09:53:21;95009.44;;;9.84
15701;BMP180;7950;42.744;23.174;2023-02-28T09:55:58;95003.88;;;9.81
15701;BMP180;7950;42.744;23.174;2023-02-28T09:58:36;95004.19;;;9.84
15701;BMP180;7950;42.744;23.174;2023-02-28T10:01:12;95001.22;;;9.92
15701;BMP180;7950;42.744;23.174;2023-02-28T10:03:55;94996.84;;;9.98
15701;BMP180;7950;42.744;23.174;2023-02-28T10:06:51;94982.38;;;10.07
15701;BMP180;7950;42.744;23.174;2023-02-28T10:09:24;94988.31;;;10.14
15701;BMP180;7950;42.744;23.174;2023-02-28T10:12:00;94987.13;;;10.21
15701;BMP180;7950;42.744;23.174;2023-02-28T10:14:33;94982.34;;;10.30
15701;BMP180;7950;42.744;23.174;2023-02-28T10:17:10;94979.78;;;10.35
15701;BMP180;7950;42.744;23.174;2023-02-28T10:19:55;94986.34;;;10.49
15701;BMP180;7950;42.744;23.174;2023-02-28T10:22:33;94977.59;;;10.60
15701;BMP180;7950;42.744;23.174;2023-02-28T10:25:17;94981.59;;;10.62
15701;BMP180;7950;42.744;23.174;2023-02-28T10:27:46;94968.31;;;10.69
15701;BMP180;7950;42.744;23.174;2023-02-28T10:30:15;94966.75;;;10.84
15701;BMP180;7950;42.744;23.174;2023-02-28T10:32:51;94962.22;;;10.96
15701;BMP180;7950;42.744;23.174;2023-02-28T10:35:24;94958.72;;;11.07
15701;BMP180;7950;42.744;23.174;2023-02-28T10:37:57;94958.41;;;11.20
15701;BMP180;7950;42.744;23.174;2023-02-28T10:40:32;94949.00;;;11.41
15701;BMP180;7950;42.744;23.174;2023-02-28T10:43:22;94947.78;;;11.48
15701;BMP180;7950;42.744;23.174;2023-02-28T10:45:59;94944.03;;;11.61
15701;BMP180;7950;42.744;23.174;2023-02-28T10:48:37;94947.56;;;11.71
15701;BMP180;7950;42.744;23.174;2023-02-28T10:51:08;94934.31;;;11.61
15701;BMP180;7950;42.744;23.174;2023-02-28T10:53:47;94931.75;;;11.66
15701;BMP180;7950;42.744;23.174;2023-02-28T10:56:27;94924.75;;;11.55
15701;BMP180;7950;42.744;23.174;2023-02-28T10:58:59;94923.00;;;11.61
15701;BMP180;7950;42.744;23.174;2023-02-28T11:01:38;94923.44;;;11.74
15701;BMP180;7950;42.744;23.174;2023-02-28T11:04:45;94911.28;;;11.90
15701;BMP180;7950;42.744;23.174;2023-02-28T11:07:19;94906.94;;;12.00
15701;BMP180;7950;42.744;23.174;2023-02-28T11:09:55;94901.47;;;12.07
15701;BMP180;7950;42.744;23.174;2023-02-28T11:12:29;94898.72;;;12.18
15701;BMP180;7950;42.744;23.174;2023-02-28T11:15:04;94896.13;;;12.23
15701;BMP180;7950;42.744;23.174;2023-02-28T11:17:34;94899.81;;;12.22
15701;BMP180;7950;42.744;23.174;2023-02-28T11:20:14;94902.31;;;12.12
15701;BMP180;7950;42.744;23.174;2023-02-28T11:22:47;94900.25;;;12.14
15701;BMP180;7950;42.744;23.174;2023-02-28T11:25:23;94891.59;;;12.19
15701;BMP180;7950;42.744;23.174;2023-02-28T11:28:00;94891.88;;;12.17
15701;BMP180;7950;42.744;23.174;2023-02-28T11:30:35;94882.50;;;12.05
15701;BMP180;7950;42.744;23.174;2023-02-28T11:33:27;94879.88;;;11.78
15701;BMP180;7950;42.744;23.174;2023-02-28T11:36:00;94884.16;;;11.63
15701;BMP180;7950;42.744;23.174;2023-02-28T11:38:30;94881.44;;;11.58
15701;BMP180;7950;42.744;23.174;2023-02-28T11:41:18;94883.25;;;11.57
15701;BMP180;7950;42.744;23.174;2023-02-28T11:44:05;94877.75;;;11.59
15701;BMP180;7950;42.744;23.174;2023-02-28T11:46:43;94887.47;;;11.58
15701;BMP180;7950;42.744;23.174;2023-02-28T11:49:30;94881.78;;;11.45
15701;BMP180;7950;42.744;23.174;2023-02-28T11:52:06;94880.56;;;11.52
15701;BMP180;7950;42.744;23.174;2023-02-28T11:55:02;94879.69;;;11.47
15701;BMP180;7950;42.744;23.174;2023-02-28T11:57:56;94876.16;;;11.36
15701;BMP180;7950;42.744;23.174;2023-02-28T12:00:40;94882.91;;;11.32
15701;BMP180;7950;42.744;23.174;2023-02-28T12:03:40;94878.78;;;11.36
15701;BMP180;7950;42.744;23.174;2023-02-28T12:06:22;94882.03;;;11.43
15701;BMP180;7950;42.744;23.174;2023-02-28T12:09:32;94879.75;;;11.52
15701;BMP180;7950;42.744;23.174;2023-02-28T12:12:15;94876.53;;;11.45
15701;BMP180;7950;42.744;23.174;2023-02-28T12:15:26;94875.72;;;11.44
15701;BMP180;7950;42.744;23.174;2023-02-28T12:18:41;94870.59;;;11.54
15701;BMP180;7950;42.744;23.174;2023-02-28T12:21:24;94870.13;;;11.57
15701;BMP180;7950;42.744;23.174;2023-02-28T12:24:36;94873.88;;;11.61
15701;BMP180;7950;42.744;23.174;2023-02-28T12:27:11;94869.81;;;11.54
15701;BMP180;7950;42.744;23.174;2023-02-28T12:29:49;94869.25;;;11.52
15701;BMP180;7950;42.744;23.174;2023-02-28T12:32:25;94867.13;;;11.49
15701;BMP180;7950;42.744;23.174;2023-02-28T12:35:02;94863.75;;;11.53
15701;BMP180;7950;42.744;23.174;2023-02-28T12:37:37;94861.34;;;11.68
15701;BMP180;7950;42.744;23.174;2023-02-28T12:40:13;94864.41;;;11.60
15701;BMP180;7950;42.744;23.174;2023-02-28T12:42:48;94854.59;;;11.56
15701;BMP180;7950;42.744;23.174;2023-02-28T12:45:22;94865.34;;;11.54
15701;BMP180;7950;42.744;23.174;2023-02-28T12:47:57;94858.94;;;11.45
15701;BMP180;7950;42.744;23.174;2023-02-28T12:50:29;94856.72;;;11.37
15701;BMP180;7950;42.744;23.174;2023-02-28T12:53:28;94854.72;;;11.44
15701;BMP180;7950;42.744;23.174;2023-02-28T12:56:15;94855.34;;;11.51
15701;BMP180;7950;42.744;23.174;2023-02-28T12:58:50;94860.28;;;11.48
15701;BMP180;7950;42.744;23.174;2023-02-28T13:01:44;94849.53;;;11.49
15701;BMP180;7950;42.744;23.174;2023-02-28T13:04:43;94843.38;;;11.60
15701;BMP180;7950;42.744;23.174;2023-02-28T13:10:24;94839.72;;;11.61
15701;BMP180;7950;42.744;23.174;2023-02-28T13:12:54;94847.66;;;11.66
15701;BMP180;7950;42.744;23.174;2023-02-28T13:15:27;94848.03;;;11.58
15701;BMP180;7950;42.744;23.174;2023-02-28T13:17:58;94842.03;;;11.58
15701;BMP180;7950;42.744;23.174;2023-02-28T13:20:34;94838.59;;;11.57
15701;BMP180;7950;42.744;23.174;2023-02-28T13:23:03;94827.03;;;11.58
15701;BMP180;7950;42.744;23.174;2023-02-28T13:25:53;94842.34;;;11.61
15701;BMP180;7950;42.744;23.174;2023-02-28T13:28:58;94832.78;;;11.77
15701;BMP180;7950;42.744;23.174;2023-02-28T13:31:27;94835.63;;;11.70
15701;BMP180;7950;42.744;23.174;2023-02-28T13:34:14;94832.00;;;11.76
15701;BMP180;7950;42.744;23.174;2023-02-28T13:36:44;94843.69;;;11.64
15701;BMP180;7950;42.744;23.174;2023-02-28T13:39:48;94837.97;;;11.50
15701;BMP180;7950;42.744;23.174;2023-02-28T13:42:34;94829.66;;;11.58
15701;BMP180;7950;42.744;23.174;2023-02-28T13:45:26;94825.41;;;11.52
15701;BMP180;7950;42.744;23.174;2023-02-28T13:47:59;94823.31;;;11.54
15701;BMP180;7950;42.744;23.174;2023-02-28T13:50:34;94814.69;;;11.59
15701;BMP180;7950;42.744;23.174;2023-02-28T13:53:59;94807.06;;;11.57
15701;BMP180;7950;42.744;23.174;2023-02-28T13:57:06;94821.19;;;11.51
15701;BMP180;7950;42.744;23.174;2023-02-28T13:59:50;94811.81;;;11.39
15701;BMP180;7950;42.744;23.174;2023-02-28T14:02:45;94804.28;;;11.42
15701;BMP180;7950;42.744;23.174;2023-02-28T14:05:18;94809.56;;;11.47
15701;BMP180;7950;42.744;23.174;2023-02-28T14:07:52;94812.06;;;11.37
15701;BMP180;7950;42.744;23.174;2023-02-28T14:10:30;94824.66;;;11.35
15701;BMP180;7950;42.744;23.174;2023-02-28T14:13:39;94817.31;;;11.37
15701;BMP180;7950;42.744;23.174;2023-02-28T14:16:14;94825.13;;;11.32
15701;BMP180;7950;42.744;23.174;2023-02-28T14:18:55;94814.34;;;11.29
15701;BMP180;7950;42.744;23.174;2023-02-28T14:22:01;94815.63;;;11.26
15701;BMP180;7950;42.744;23.174;2023-02-28T14:25:03;94829.03;;;11.30
15701;BMP180;7950;42.744;23.174;2023-02-28T14:27:44;94826.06;;;11.21
15701;BMP180;7950;42.744;23.174;2023-02-28T14:33:39;94817.94;;;11.23
15701;BMP180;7950;42.744;23.174;2023-02-28T14:36:17;94829.75;;;11.20
15701;BMP180;7950;42.744;23.174;2023-02-28T14:38:50;94827.88;;;11.21
15701;BMP180;7950;42.744;23.174;2023-02-28T14:41:24;94826.00;;;11.16
15701;BMP180;7950;42.744;23.174;2023-02-28T14:44:16;94821.47;;;11.12
15701;BMP180;7950;42.744;23.174;2023-02-28T14:46:49;94825.44;;;11.14
15701;BMP180;7950;42.744;23.174;2023-02-28T14:49:27;94819.47;;;11.19
15701;BMP180;7950;42.744;23.174;2023-02-28T14:52:07;94812.06;;;11.16
15701;BMP180;7950;42.744;23.174;2023-02-28T14:54:39;94817.50;;;11.09
15701;BMP180;7950;42.744;23.174;2023-02-28T14:57:22;94821.41;;;11.07
15701;BMP180;7950;42.744;23.174;2023-02-28T15:00:02;94824.69;;;10.97
15701;BMP180;7950;42.744;23.174;2023-02-28T15:02:40;94821.56;;;11.00
15701;BMP180;7950;42.744;23.174;2023-02-28T15:05:25;94811.47;;;10.71
15701;BMP180;7950;42.744;23.174;2023-02-28T15:08:10;94820.34;;;10.53
15701;BMP180;7950;42.744;23.174;2023-02-28T15:10:42;94827.31;;;10.43
15701;BMP180;7950;42.744;23.174;2023-02-28T15:13:15;94817.50;;;10.38
15701;BMP180;7950;42.744;23.174;2023-02-28T15:15:50;94821.88;;;10.16
15701;BMP180;7950;42.744;23.174;2023-02-28T15:19:14;94823.53;;;10.06
15701;BMP180;7950;42.744;23.174;2023-02-28T15:21:53;94822.34;;;9.85